Time;durP1;ratioP1;P1;durP2;ratioP2;P2;SDS_P1;SDS_P2;PMS_P1;PMS_P2;Temp;Humidity;BMP_temperature;BMP_pressure;BME280_temperature;BME280_humidity;BME280_pressure;Samples;Min_cycle;Max_cycle;Signal;HPM_P1;HPM_P2
2022/03/18 00:00:52;;;;;;;9.10;7.20;;;6.10;99.90;;;;;;5053273;28;20454;-81
2022/03/18 00:03:19;;;;;;;10.00;7.93;;;6.10;99.90;;;;;;5052596;28;20958;-81
2022/03/18 00:05:48;;;;;;;11.40;8.13;;;6.00;99.90;;;;;;5052816;28;20454;-83
2022/03/18 00:08:16;;;;;;;11.10;8.27;;;5.90;99.90;;;;;;5050307;28;20474;-80
2022/03/18 00:10:44;;;;;;;10.80;8.17;;;5.90;99.90;;;;;;5049049;28;20544;-81
2022/03/18 00:13:12;;;;;;;11.60;8.67;;;5.90;99.90;;;;;;5050711;28;20887;-80
2022/03/18 00:15:39;;;;;;;12.83;9.77;;;5.90;99.90;;;;;;5053298;28;20550;-83
2022/03/18 00:18:06;;;;;;;13.10;10.20;;;5.80;99.90;;;;;;5053700;28;20486;-82
2022/03/18 00:20:33;;;;;;;9.23;7.63;;;5.80;99.90;;;;;;5054365;28;20458;-80
2022/03/18 00:23:02;;;;;;;12.47;8.20;;;5.80;99.90;;;;;;5055221;28;20472;-80
2022/03/18 00:25:29;;;;;;;13.70;9.23;;;5.70;99.90;;;;;;5053794;28;21009;-82
2022/03/18 00:27:56;;;;;;;10.80;9.23;;;5.80;99.90;;;;;;5053362;28;20481;-80
2022/03/18 00:30:24;;;;;;;11.60;9.23;;;5.80;99.90;;;;;;5052884;28;20457;-80
2022/03/18 00:32:51;;;;;;;12.30;8.50;;;5.80;99.90;;;;;;5052466;28;20496;-81
2022/03/18 00:35:19;;;;;;;12.60;9.40;;;5.80;99.90;;;;;;5051823;28;20450;-82
2022/03/18 00:37:46;;;;;;;12.87;9.57;;;5.80;99.90;;;;;;5051559;28;21075;-81
2022/03/18 00:40:15;;;;;;;13.40;9.60;;;5.80;99.90;;;;;;5052513;28;20457;-80
2022/03/18 00:42:46;;;;;;;11.47;9.20;;;5.90;99.90;;;;;;5052717;28;20954;-80
2022/03/18 00:45:13;;;;;;;14.83;9.93;;;5.90;99.90;;;;;;5052608;28;20457;-80
2022/03/18 00:53:10;;;;;;;12.10;9.20;;;5.90;99.90;;;;;;5052251;28;21039;-80
2022/03/18 00:55:38;;;;;;;13.17;9.50;;;5.90;99.90;;;;;;5052355;28;20446;-79
2022/03/18 00:58:06;;;;;;;17.57;9.73;;;5.80;99.90;;;;;;5052788;28;20612;-80
2022/03/18 01:00:33;;;;;;;12.73;9.90;;;5.60;99.90;;;;;;5053271;28;20473;-79
2022/03/18 01:03:00;;;;;;;16.63;11.53;;;5.50;99.90;;;;;;5052739;28;20462;-80
2022/03/18 01:05:28;;;;;;;12.90;9.83;;;5.40;99.90;;;;;;5052257;28;20795;-83
2022/03/18 01:07:55;;;;;;;13.63;9.53;;;5.40;99.90;;;;;;5051766;28;20917;-82
2022/03/18 01:10:22;;;;;;;15.57;11.23;;;5.60;99.90;;;;;;5051993;28;20459;-81
2022/03/18 01:12:51;;;;;;;13.47;9.90;;;5.70;99.90;;;;;;5051548;28;20458;-82
2022/03/18 01:15:18;;;;;;;12.43;8.40;;;5.60;99.90;;;;;;5051477;28;20454;-82
2022/03/18 01:17:45;;;;;;;13.37;10.97;;;5.60;99.90;;;;;;5052534;28;20540;-81
2022/03/18 01:20:12;;;;;;;12.97;9.03;;;5.70;99.90;;;;;;5053645;28;20911;-81
2022/03/18 01:22:39;;;;;;;11.90;9.60;;;5.80;99.90;;;;;;5052975;28;20464;-83
2022/03/18 01:25:07;;;;;;;11.17;9.63;;;5.80;99.90;;;;;;5051980;28;20489;-82
2022/03/18 01:27:34;;;;;;;10.70;8.90;;;5.80;99.90;;;;;;5052191;28;20477;-80
2022/03/18 01:30:03;;;;;;;12.60;9.40;;;5.50;99.90;;;;;;5052262;28;20449;-79
2022/03/18 01:32:32;;;;;;;12.37;9.80;;;5.50;99.90;;;;;;5051759;28;20457;-78
2022/03/18 01:34:59;;;;;;;12.70;9.57;;;5.50;99.90;;;;;;5051264;28;20458;-81
2022/03/18 01:37:26;;;;;;;13.10;9.50;;;5.50;99.90;;;;;;5051087;28;20845;-81
2022/03/18 01:39:54;;;;;;;11.63;8.40;;;5.60;99.90;;;;;;5051206;28;20453;-80
2022/03/18 01:42:21;;;;;;;12.83;9.00;;;5.60;99.90;;;;;;5050954;28;20912;-80
2022/03/18 01:44:48;;;;;;;11.40;9.30;;;5.60;99.90;;;;;;5051083;28;20452;-81
2022/03/18 01:47:17;;;;;;;10.77;8.40;;;5.60;99.90;;;;;;5050904;28;20943;-82
2022/03/18 01:49:44;;;;;;;13.60;10.50;;;5.60;99.90;;;;;;5051228;28;20812;-79
2022/03/18 01:52:12;;;;;;;11.60;10.20;;;5.30;99.90;;;;;;5051098;28;20525;-81
2022/03/18 01:54:47;;;;;;;12.77;9.53;;;5.40;99.90;;;;;;5050873;28;20460;-84
2022/03/18 01:57:18;;;;;;;14.13;9.37;;;5.50;99.90;;;;;;5050670;28;20549;-80
2022/03/18 01:59:46;;;;;;;13.30;10.60;;;5.60;99.90;;;;;;5051048;28;20462;-83
2022/03/18 02:02:14;;;;;;;13.27;8.93;;;5.50;99.90;;;;;;5050928;28;20442;-82
2022/03/18 02:04:46;;;;;;;16.00;10.73;;;5.30;99.90;;;;;;5050502;28;20469;-79
2022/03/18 02:07:14;;;;;;;17.07;10.20;;;5.40;99.90;;;;;;5050227;28;20446;-81
2022/03/18 02:09:42;;;;;;;12.13;8.07;;;5.40;99.90;;;;;;5050174;28;20967;-79
2022/03/18 02:12:11;;;;;;;15.30;9.77;;;5.50;99.90;;;;;;5050286;28;20458;-80
2022/03/18 02:14:40;;;;;;;17.40;9.97;;;5.60;99.90;;;;;;5050402;28;20471;-79
2022/03/18 02:17:09;;;;;;;16.60;10.87;;;5.60;99.90;;;;;;5051244;28;20476;-82
2022/03/18 02:19:37;;;;;;;13.00;9.40;;;5.60;99.90;;;;;;5050783;28;20485;-80
2022/03/18 02:22:11;;;;;;;15.70;10.20;;;5.40;99.90;;;;;;5051269;28;20453;-81
2022/03/18 02:24:40;;;;;;;13.63;10.07;;;5.30;99.90;;;;;;5051194;28;20502;-80
2022/03/18 02:27:08;;;;;;;15.37;11.60;;;5.30;99.90;;;;;;5050470;28;20450;-82
2022/03/18 02:29:35;;;;;;;12.30;9.77;;;5.40;99.90;;;;;;5050256;28;20449;-83
2022/03/18 02:32:04;;;;;;;11.83;9.87;;;5.40;99.90;;;;;;5049827;28;20740;-81
2022/03/18 02:34:32;;;;;;;11.57;9.70;;;5.30;99.90;;;;;;5049913;28;20552;-81
2022/03/18 02:36:59;;;;;;;12.40;11.10;;;5.40;99.90;;;;;;5049074;28;20454;-81
2022/03/18 02:39:26;;;;;;;13.77;11.10;;;5.40;99.90;;;;;;5049884;28;20493;-81
2022/03/18 02:41:55;;;;;;;14.57;12.00;;;5.40;99.90;;;;;;5049778;28;20457;-81
2022/03/18 02:44:23;;;;;;;13.23;11.77;;;5.30;99.90;;;;;;5049949;28;20442;-79
2022/03/18 02:46:50;;;;;;;11.50;10.27;;;5.10;99.90;;;;;;5051090;28;20466;-81
2022/03/18 02:49:19;;;;;;;13.97;12.20;;;5.10;99.90;;;;;;5053701;28;20934;-82
2022/03/18 02:51:47;;;;;;;13.70;11.13;;;5.20;99.90;;;;;;5052054;28;20491;-82
2022/03/18 02:54:14;;;;;;;14.07;11.90;;;5.20;99.90;;;;;;5052709;28;20450;-80
2022/03/18 02:56:41;;;;;;;13.57;11.67;;;5.20;99.90;;;;;;5052358;28;20450;-83
2022/03/18 02:59:10;;;;;;;13.93;12.43;;;5.20;99.90;;;;;;5050717;28;20520;-80
2022/03/18 03:01:37;;;;;;;14.77;12.33;;;5.30;99.90;;;;;;5051192;28;20453;-81
2022/03/18 03:04:04;;;;;;;15.30;12.80;;;5.30;99.90;;;;;;5051075;28;20476;-81
2022/03/18 03:09:18;;;;;;;19.47;13.63;;;5.20;99.90;;;;;;5049858;28;20523;-80
2022/03/18 03:11:45;;;;;;;16.90;13.90;;;5.10;99.90;;;;;;5049441;28;20811;-80
2022/03/18 03:14:14;;;;;;;14.23;11.97;;;4.90;99.90;;;;;;5049757;28;20450;-80
2022/03/18 03:16:42;;;;;;;15.37;13.77;;;5.00;99.90;;;;;;5050422;28;20469;-80
2022/03/18 03:19:09;;;;;;;18.43;14.60;;;5.00;99.90;;;;;;5051014;28;20587;-80
2022/03/18 03:21:57;;;;;;;15.87;13.07;;;5.00;99.90;;;;;;5051078;28;20458;-80
2022/03/18 03:24:28;;;;;;;17.07;13.37;;;5.00;99.90;;;;;;5042492;28;20509;-81
2022/03/18 03:26:55;;;;;;;17.53;13.80;;;4.80;99.90;;;;;;5050619;28;20838;-82
2022/03/18 03:29:23;;;;;;;17.63;14.70;;;4.60;99.90;;;;;;5051039;28;20469;-79
2022/03/18 03:31:50;;;;;;;19.00;13.97;;;4.70;99.90;;;;;;5050253;28;20500;-80
2022/03/18 03:34:19;;;;;;;16.37;12.77;;;4.80;99.90;;;;;;5049958;28;20457;-80
2022/03/18 03:36:49;;;;;;;14.60;12.73;;;4.80;99.90;;;;;;5049469;28;20496;-81
2022/03/18 03:39:16;;;;;;;18.83;13.43;;;4.80;99.90;;;;;;5049145;28;20845;-80
2022/03/18 03:41:44;;;;;;;16.57;12.33;;;4.80;99.90;;;;;;5049401;28;20461;-79
2022/03/18 03:44:12;;;;;;;14.30;12.53;;;4.60;99.90;;;;;;5049269;28;20912;-81
2022/03/18 03:46:40;;;;;;;15.73;12.50;;;4.70;99.90;;;;;;5049544;28;20507;-81
2022/03/18 03:49:07;;;;;;;13.83;12.40;;;4.50;99.90;;;;;;5052961;28;20470;-80
2022/03/18 03:51:35;;;;;;;16.63;11.20;;;4.40;99.90;;;;;;5053747;28;20959;-81
2022/03/18 03:54:02;;;;;;;13.73;11.57;;;4.50;99.90;;;;;;5054048;28;20519;-81
2022/03/18 03:56:29;;;;;;;15.43;11.77;;;4.50;99.90;;;;;;5054082;28;20842;-81
2022/03/18 03:58:56;;;;;;;14.00;11.10;;;4.60;99.90;;;;;;5053733;28;20489;-82
2022/03/18 04:01:23;;;;;;;13.30;11.60;;;4.50;99.90;;;;;;5054379;28;20532;-79
2022/03/18 04:03:52;;;;;;;13.33;10.10;;;4.60;99.90;;;;;;5053922;28;20454;-80
2022/03/18 04:06:19;;;;;;;12.00;10.70;;;4.60;99.90;;;;;;5053631;28;20461;-80
2022/03/18 04:08:46;;;;;;;12.80;10.30;;;4.60;99.90;;;;;;5052996;28;20500;-80
2022/03/18 04:11:13;;;;;;;14.23;11.47;;;4.60;99.90;;;;;;5052575;28;20453;-81
2022/03/18 04:13:40;;;;;;;12.57;10.37;;;4.50;99.90;;;;;;5052406;28;20465;-80
2022/03/18 04:16:07;;;;;;;16.30;11.10;;;4.50;99.90;;;;;;5053101;28;20515;-81
2022/03/18 04:18:35;;;;;;;14.60;12.20;;;4.60;99.90;;;;;;5053524;28;20934;-81
2022/03/18 04:21:03;;;;;;;11.93;10.07;;;4.60;99.90;;;;;;5055125;28;20500;-80
2022/03/18 04:23:30;;;;;;;12.43;10.93;;;4.70;99.90;;;;;;5054544;28;20458;-80
2022/03/18 04:25:57;;;;;;;14.90;11.07;;;4.80;99.90;;;;;;5054068;28;20497;-81
2022/03/18 04:28:25;;;;;;;12.53;10.70;;;4.70;99.90;;;;;;5053115;28;20465;-82
2022/03/18 04:30:52;;;;;;;11.83;9.43;;;4.70;99.90;;;;;;5053207;28;20849;-81
2022/03/18 04:33:19;;;;;;;12.20;9.73;;;4.80;99.90;;;;;;5053942;28;20925;-81
2022/03/18 04:35:46;;;;;;;12.23;9.23;;;4.80;99.90;;;;;;5053729;28;20994;-82
2022/03/18 04:38:14;;;;;;;13.57;9.37;;;4.90;99.90;;;;;;5053918;28;20473;-80
2022/03/18 04:40:42;;;;;;;10.70;9.10;;;5.10;99.90;;;;;;5054456;28;20450;-79
2022/03/18 04:43:09;;;;;;;12.97;9.70;;;5.10;99.90;;;;;;5054448;28;20450;-79
2022/03/18 04:45:36;;;;;;;11.67;8.77;;;5.20;99.90;;;;;;5054218;28;20894;-83
2022/03/18 04:48:03;;;;;;;13.00;9.50;;;5.10;99.90;;;;;;5053921;28;20462;-82
2022/03/18 04:50:30;;;;;;;10.73;8.77;;;5.00;99.90;;;;;;5053864;28;20800;-80
2022/03/18 04:52:58;;;;;;;10.57;8.30;;;5.10;99.90;;;;;;5054394;28;20446;-81
2022/03/18 04:55:26;;;;;;;13.03;9.43;;;5.00;99.90;;;;;;5053964;28;20454;-80
2022/03/18 04:57:53;;;;;;;10.80;8.93;;;5.10;99.90;;;;;;5053476;28;20982;-82
2022/03/18 05:00:24;;;;;;;9.80;8.00;;;5.10;99.90;;;;;;5051285;28;20485;-69
2022/03/18 05:02:51;;;;;;;12.17;10.00;;;5.20;99.90;;;;;;5051383;28;20966;-69
2022/03/18 05:05:19;;;;;;;13.70;10.37;;;5.20;99.90;;;;;;5051560;28;20464;-68
2022/03/18 05:07:50;;;;;;;15.43;10.57;;;5.20;99.90;;;;;;5043766;28;20585;-71
2022/03/18 05:10:18;;;;;;;10.50;9.10;;;5.00;99.90;;;;;;5051103;28;20541;-69
2022/03/18 05:12:47;;;;;;;11.37;9.77;;;5.00;99.90;;;;;;5051043;28;20477;-69
2022/03/18 05:15:14;;;;;;;12.90;9.73;;;5.10;99.90;;;;;;5051106;28;20974;-71
2022/03/18 05:17:42;;;;;;;14.27;10.90;;;5.20;99.90;;;;;;5051188;28;20927;-68
2022/03/18 05:20:12;;;;;;;13.47;10.17;;;5.20;99.90;;;;;;5050978;28;20485;-69
2022/03/18 05:22:39;;;;;;;12.97;9.30;;;5.30;99.90;;;;;;5051043;28;20458;-67
2022/03/18 05:25:07;;;;;;;11.43;9.00;;;5.30;99.90;;;;;;5051652;28;20489;-82
2022/03/18 05:27:40;;;;;;;11.30;9.90;;;5.30;99.90;;;;;;5052646;28;20600;-72
2022/03/18 05:30:10;;;;;;;13.73;9.57;;;5.30;99.90;;;;;;5050808;28;20454;-71
2022/03/18 05:32:37;;;;;;;11.63;9.13;;;5.20;99.90;;;;;;5050927;28;20457;-70
2022/03/18 05:35:05;;;;;;;11.60;9.40;;;5.20;99.90;;;;;;5050053;28;20989;-69
2022/03/18 05:37:32;;;;;;;12.13;8.87;;;5.10;99.90;;;;;;5050475;28;20543;-69
2022/03/18 05:39:59;;;;;;;11.90;8.30;;;5.20;99.90;;;;;;5050355;28;20482;-69
2022/03/18 05:42:26;;;;;;;11.80;8.97;;;5.20;99.90;;;;;;5050518;28;20446;-70
2022/03/18 05:44:53;;;;;;;10.97;8.10;;;5.10;99.90;;;;;;5050500;28;20485;-70
2022/03/18 05:47:22;;;;;;;11.23;8.07;;;5.00;99.90;;;;;;5050619;28;20474;-71
2022/03/18 05:49:49;;;;;;;12.70;8.03;;;4.90;99.90;;;;;;5050804;28;20790;-71
2022/03/18 05:52:16;;;;;;;10.80;7.80;;;4.80;99.90;;;;;;5050291;28;20484;-71
2022/03/18 05:54:43;;;;;;;10.90;6.73;;;4.60;99.90;;;;;;5050261;28;20457;-71
2022/03/18 05:57:11;;;;;;;9.30;6.80;;;4.40;99.90;;;;;;5050342;28;20858;-68
2022/03/18 05:59:38;;;;;;;9.20;7.70;;;4.10;99.90;;;;;;5050428;28;20543;-70
2022/03/18 06:02:06;;;;;;;12.63;7.27;;;4.10;99.90;;;;;;5050246;28;20457;-71
2022/03/18 06:04:35;;;;;;;11.07;8.13;;;4.30;99.90;;;;;;5050073;28;20557;-69
2022/03/18 06:07:06;;;;;;;10.30;7.50;;;4.30;99.90;;;;;;5043124;28;20451;-73
2022/03/18 06:12:17;;;;;;;10.30;7.07;;;4.60;99.90;;;;;;5030157;28;20438;-73
2022/03/18 06:14:44;;;;;;;9.73;7.10;;;4.50;99.90;;;;;;5029606;28;20497;-67
2022/03/18 06:17:11;;;;;;;10.00;7.30;;;4.60;99.90;;;;;;5029838;28;20451;-76
2022/03/18 06:19:40;;;;;;;15.10;8.67;;;4.60;99.90;;;;;;5029551;28;20952;-75
2022/03/18 06:22:08;;;;;;;13.73;9.70;;;4.70;99.90;;;;;;5029896;28;20463;-75
2022/03/18 06:24:36;;;;;;;12.10;9.60;;;4.80;99.90;;;;;;5029540;28;20620;-74
2022/03/18 06:27:04;;;;;;;18.30;11.87;;;5.00;99.90;;;;;;5029425;28;20478;-80
2022/03/18 06:29:32;;;;;;;12.80;10.10;;;5.00;99.90;;;;;;5029948;28;20473;-73
2022/03/18 06:32:00;;;;;;;17.70;10.00;;;4.70;99.90;;;;;;5029490;28;20494;-72
2022/03/18 06:34:27;;;;;;;13.27;8.90;;;4.80;99.90;;;;;;5029836;28;20458;-67
2022/03/18 06:36:57;;;;;;;13.13;10.17;;;4.90;99.90;;;;;;5029800;28;20877;-66
2022/03/18 06:39:25;;;;;;;11.90;9.90;;;5.10;99.90;;;;;;5029752;28;20990;-67
2022/03/18 06:41:54;;;;;;;13.17;8.77;;;5.20;99.90;;;;;;5046054;28;20823;-69
2022/03/18 06:44:21;;;;;;;11.73;9.77;;;5.40;99.90;;;;;;5049513;28;20457;-67
2022/03/18 06:46:48;;;;;;;14.30;8.70;;;5.50;99.90;;;;;;5049474;28;20962;-78
2022/03/18 06:49:15;;;;;;;14.83;8.90;;;5.50;99.90;;;;;;5049483;28;20477;-77
2022/03/18 06:51:43;;;;;;;10.90;7.70;;;5.50;99.90;;;;;;5049653;28;20480;-77
2022/03/18 06:54:12;;;;;;;9.40;7.10;;;5.60;99.90;;;;;;5049627;28;20454;-76
2022/03/18 06:56:40;;;;;;;11.00;7.63;;;5.60;99.90;;;;;;5049387;28;20481;-79
2022/03/18 06:59:07;;;;;;;14.00;8.03;;;5.60;99.90;;;;;;5049266;28;20495;-79
2022/03/18 07:01:34;;;;;;;14.33;8.00;;;5.70;99.90;;;;;;5049726;28;20813;-80
2022/03/18 07:04:02;;;;;;;12.13;8.00;;;5.80;99.90;;;;;;5033957;28;20520;-77
2022/03/18 07:06:29;;;;;;;12.53;8.43;;;5.80;99.90;;;;;;5029683;28;20466;-76
2022/03/18 07:08:56;;;;;;;9.50;7.10;;;5.70;99.90;;;;;;5029614;28;20551;-79
2022/03/18 07:11:24;;;;;;;11.57;7.67;;;5.80;99.90;;;;;;5029260;28;20981;-78
2022/03/18 07:13:51;;;;;;;11.73;7.67;;;5.70;99.90;;;;;;5029197;28;20450;-77
2022/03/18 07:19:03;;;;;;;9.00;6.10;;;5.70;99.90;;;;;;5029687;28;20528;-78
2022/03/18 07:21:30;;;;;;;13.33;6.97;;;6.00;99.90;;;;;;5029358;28;20446;-75
2022/03/18 07:23:57;;;;;;;10.53;7.40;;;6.30;99.90;;;;;;5033301;28;20458;-79
2022/03/18 07:26:26;;;;;;;9.43;7.10;;;6.60;99.30;;;;;;5033191;28;20481;-76
2022/03/18 07:28:53;;;;;;;9.20;5.83;;;6.70;97.00;;;;;;5032922;28;20524;-76
2022/03/18 07:31:20;;;;;;;8.07;5.60;;;6.80;96.50;;;;;;5033662;28;20461;-78
2022/03/18 07:33:47;;;;;;;10.20;6.63;;;7.00;96.60;;;;;;5032810;28;20462;-70
2022/03/18 07:36:14;;;;;;;8.77;5.80;;;7.00;94.80;;;;;;5033367;28;20462;-79
2022/03/18 07:38:43;;;;;;;10.97;6.90;;;7.20;93.90;;;;;;5032759;28;20482;-77
2022/03/18 07:41:10;;;;;;;7.80;5.27;;;7.00;93.10;;;;;;5033042;28;20494;-78
2022/03/18 07:43:38;;;;;;;11.13;6.30;;;7.10;93.50;;;;;;5033196;28;20458;-79
2022/03/18 07:46:06;;;;;;;8.27;5.63;;;7.30;94.30;;;;;;5032791;28;20465;-75
2022/03/18 07:48:33;;;;;;;8.77;6.90;;;7.30;92.10;;;;;;5032992;28;20491;-74
2022/03/18 07:51:00;;;;;;;12.83;6.50;;;7.40;93.50;;;;;;5032385;28;20462;-78
2022/03/18 07:53:27;;;;;;;9.90;7.30;;;7.60;93.00;;;;;;5032842;28;20454;-75
2022/03/18 07:55:54;;;;;;;7.70;6.07;;;7.60;91.70;;;;;;5032773;28;20487;-75
2022/03/18 07:58:21;;;;;;;15.40;8.30;;;7.40;90.60;;;;;;5032475;28;20478;-75
2022/03/18 08:00:50;;;;;;;8.20;5.93;;;7.20;90.30;;;;;;5032008;28;20995;-66
2022/03/18 08:03:17;;;;;;;12.70;6.73;;;7.30;90.50;;;;;;5032594;28;20453;-68
2022/03/18 08:05:44;;;;;;;9.80;6.20;;;7.30;91.60;;;;;;5032375;28;20463;-67
2022/03/18 08:08:11;;;;;;;9.00;6.30;;;7.30;90.00;;;;;;5032040;28;20482;-74
2022/03/18 08:10:40;;;;;;;11.07;6.60;;;7.10;91.50;;;;;;5031804;28;20458;-77
2022/03/18 08:13:07;;;;;;;9.60;7.03;;;7.30;91.10;;;;;;5030921;28;20455;-74
2022/03/18 08:15:35;;;;;;;10.53;6.70;;;7.50;90.90;;;;;;5032277;28;20447;-75
2022/03/18 08:18:03;;;;;;;8.70;6.83;;;7.60;89.80;;;;;;5032288;28;20463;-73
2022/03/18 08:20:31;;;;;;;9.10;6.53;;;7.90;91.20;;;;;;5031942;28;20493;-75
2022/03/18 08:22:58;;;;;;;10.67;6.40;;;7.90;90.50;;;;;;5032576;28;20458;-73
2022/03/18 08:25:25;;;;;;;10.17;7.00;;;7.70;87.40;;;;;;5031863;28;20502;-76
2022/03/18 08:27:52;;;;;;;9.10;6.47;;;7.80;86.60;;;;;;5033065;28;20482;-77
2022/03/18 08:30:19;;;;;;;11.13;6.73;;;7.90;88.10;;;;;;5033780;28;20458;-76
2022/03/18 08:32:46;;;;;;;9.33;7.70;;;8.20;86.40;;;;;;5033766;28;20459;-75
2022/03/18 08:35:15;;;;;;;11.10;6.57;;;8.10;84.00;;;;;;5031226;28;20558;-70
2022/03/18 08:37:58;;;;;;;10.97;8.23;;;8.00;83.50;;;;;;5031553;28;20471;-77
2022/03/18 08:40:27;;;;;;;8.60;6.33;;;8.10;81.00;;;;;;5032275;28;20589;-77
2022/03/18 08:42:55;;;;;;;8.70;6.40;;;7.90;77.20;;;;;;5031911;28;21018;-78
2022/03/18 08:45:22;;;;;;;9.73;6.60;;;7.90;77.90;;;;;;5031985;28;20474;-73
2022/03/18 08:47:49;;;;;;;11.00;7.13;;;7.90;78.60;;;;;;5031833;28;20451;-78
2022/03/18 08:50:20;;;;;;;10.23;8.30;;;8.10;77.40;;;;;;5031515;28;20469;-78
2022/03/18 08:52:49;;;;;;;7.90;6.00;;;8.30;75.20;;;;;;5031870;28;20451;-76
2022/03/18 08:55:17;;;;;;;10.77;6.40;;;8.40;73.10;;;;;;5031895;28;20482;-73
2022/03/18 08:57:44;;;;;;;9.07;6.17;;;8.60;71.60;;;;;;5014157;28;20817;-78
2022/03/18 09:00:14;;;;;;;9.10;6.67;;;8.90;69.90;;;;;;5032024;28;20494;-73
2022/03/18 09:02:42;;;;;;;10.80;6.43;;;9.00;70.80;;;;;;5031439;28;20462;-75
2022/03/18 09:05:10;;;;;;;14.83;6.40;;;9.10;68.10;;;;;;5031819;28;20571;-76
2022/03/18 09:07:40;;;;;;;8.53;6.20;;;8.90;68.90;;;;;;5031542;28;20513;-78
2022/03/18 09:10:09;;;;;;;9.67;6.90;;;9.00;71.20;;;;;;5031515;28;20477;-77
2022/03/18 09:12:36;;;;;;;8.50;6.70;;;9.30;69.40;;;;;;5031303;28;20455;-78
2022/03/18 09:15:03;;;;;;;9.60;6.97;;;9.00;63.70;;;;;;5031268;28;20466;-78
2022/03/18 09:17:31;;;;;;;9.60;6.20;;;9.00;65.00;;;;;;5031385;28;20983;-79
2022/03/18 09:19:58;;;;;;;8.40;6.00;;;9.20;66.00;;;;;;5031024;28;20494;-70
2022/03/18 09:22:25;;;;;;;13.30;6.67;;;9.30;64.60;;;;;;5030662;28;20450;-77
2022/03/18 09:24:54;;;;;;;10.93;6.17;;;9.30;65.10;;;;;;5030795;28;20493;-78
2022/03/18 09:27:21;;;;;;;10.50;6.77;;;9.10;63.00;;;;;;5030658;28;20470;-79
2022/03/18 09:29:48;;;;;;;9.73;6.23;;;9.40;64.10;;;;;;5031021;28;20502;-80
2022/03/18 09:32:15;;;;;;;8.10;6.47;;;9.40;63.50;;;;;;5031197;28;20447;-77
2022/03/18 09:34:43;;;;;;;9.47;5.93;;;8.90;62.10;;;;;;5031125;28;20494;-72
2022/03/18 09:37:10;;;;;;;13.20;6.07;;;9.20;64.00;;;;;;5031196;28;21215;-75
2022/03/18 09:39:37;;;;;;;9.00;6.30;;;9.40;60.90;;;;;;5030756;28;20465;-76
2022/03/18 09:42:06;;;;;;;10.47;6.50;;;9.70;64.10;;;;;;5030728;28;20455;-74
2022/03/18 09:44:36;;;;;;;8.60;6.33;;;10.00;58.50;;;;;;5030573;28;20435;-74
2022/03/18 09:47:05;;;;;;;9.50;6.70;;;10.00;55.90;;;;;;5030647;28;20459;-77
2022/03/18 09:49:33;;;;;;;9.03;6.43;;;10.00;58.50;;;;;;5030861;28;20458;-77
2022/03/18 09:52:00;;;;;;;9.53;6.93;;;10.20;58.90;;;;;;5030516;28;20454;-74
2022/03/18 09:54:28;;;;;;;9.10;6.90;;;10.50;58.30;;;;;;5030537;28;20459;-79
2022/03/18 09:56:55;;;;;;;9.87;6.40;;;10.60;55.50;;;;;;5030344;28;20451;-77
2022/03/18 09:59:24;;;;;;;9.83;6.50;;;10.80;57.50;;;;;;5030406;28;20466;-75
2022/03/18 10:02:25;;;;;;;9.27;6.90;;;11.30;58.00;;;;;;5030490;28;20483;-75
2022/03/18 10:04:54;;;;;;;9.53;6.40;;;11.40;55.50;;;;;;5030872;28;20478;-78
2022/03/18 10:07:21;;;;;;;11.27;6.00;;;11.50;54.50;;;;;;5030414;28;20483;-80
2022/03/18 10:09:49;;;;;;;10.87;6.33;;;11.60;54.00;;;;;;5030667;28;20628;-78
2022/03/18 10:12:34;;;;;;;8.87;6.63;;;11.70;52.60;;;;;;5030415;28;20982;-78
2022/03/18 10:15:13;;;;;;;10.53;6.73;;;11.40;52.30;;;;;;5029686;28;20458;-81
2022/03/18 10:17:46;;;;;;;9.20;7.23;;;12.00;51.20;;;;;;5029896;28;20912;-74
2022/03/18 10:20:33;;;;;;;9.10;6.20;;;11.60;50.40;;;;;;5030116;28;20568;-72
2022/03/18 10:23:06;;;;;;;8.30;6.33;;;11.80;52.50;;;;;;5030454;28;20458;-76
2022/03/18 10:25:46;;;;;;;12.50;6.90;;;12.20;52.10;;;;;;5029435;28;20527;-75
2022/03/18 10:28:13;;;;;;;8.57;6.90;;;12.50;52.70;;;;;;5029881;28;20478;-70
2022/03/18 10:30:42;;;;;;;9.87;6.20;;;12.40;48.90;;;;;;5029596;28;20462;-82
2022/03/18 10:33:09;;;;;;;10.40;6.97;;;12.50;50.50;;;;;;5029887;28;21122;-75
2022/03/18 10:38:30;;;;;;;12.60;8.07;;;12.40;50.40;;;;;;5029891;28;20633;-74
2022/03/18 10:40:59;;;;;;;10.17;7.00;;;12.00;50.40;;;;;;5029126;28;20501;-75
2022/03/18 10:43:26;;;;;;;10.03;8.03;;;11.60;50.20;;;;;;5029688;28;20838;-74
2022/03/18 10:46:05;;;;;;;10.53;7.57;;;11.40;52.00;;;;;;5029838;28;20461;-74
2022/03/18 10:48:33;;;;;;;10.77;6.77;;;11.20;51.10;;;;;;5029646;28;20482;-74
2022/03/18 10:51:05;;;;;;;9.47;7.13;;;11.50;50.80;;;;;;5029589;28;20451;-75
2022/03/18 10:53:33;;;;;;;9.07;6.27;;;11.80;49.50;;;;;;5029462;28;20810;-77
2022/03/18 10:56:01;;;;;;;8.03;5.97;;;12.30;48.70;;;;;;5029240;28;20924;-72
2022/03/18 10:58:33;;;;;;;9.97;6.77;;;12.30;48.80;;;;;;5028896;28;20885;-76
2022/03/18 11:01:04;;;;;;;8.80;5.70;;;12.10;47.20;;;;;;5029830;28;20804;-69
2022/03/18 11:03:32;;;;;;;8.90;6.27;;;11.60;48.20;;;;;;5029565;28;20463;-69
2022/03/18 11:06:03;;;;;;;10.47;7.03;;;11.40;50.00;;;;;;5029408;28;20939;-68
2022/03/18 11:08:40;;;;;;;8.53;6.37;;;11.80;48.60;;;;;;5029245;28;20478;-70
2022/03/18 11:11:10;;;;;;;10.47;6.80;;;12.20;47.30;;;;;;5029177;28;21255;-68
2022/03/18 11:13:48;;;;;;;9.10;6.57;;;12.50;45.80;;;;;;5028940;28;20964;-70
2022/03/18 11:16:20;;;;;;;9.93;5.40;;;12.50;45.60;;;;;;5029495;28;20509;-67
2022/03/18 11:18:48;;;;;;;8.20;6.00;;;12.90;45.60;;;;;;5028952;28;20478;-70
2022/03/18 11:21:17;;;;;;;8.60;6.10;;;13.00;44.60;;;;;;5029262;28;20497;-69
2022/03/18 11:23:46;;;;;;;12.33;6.50;;;13.30;43.10;;;;;;5029062;28;20458;-67
2022/03/18 11:26:15;;;;;;;9.53;6.53;;;13.30;42.00;;;;;;5029175;28;20572;-69
2022/03/18 11:28:43;;;;;;;9.07;6.33;;;13.50;44.30;;;;;;5028793;28;20471;-68
2022/03/18 11:31:11;;;;;;;9.87;6.10;;;13.70;43.80;;;;;;5029313;28;20447;-66
2022/03/18 11:33:40;;;;;;;11.37;6.47;;;13.50;45.10;;;;;;5029107;28;20462;-66
2022/03/18 11:36:17;;;;;;;12.10;6.40;;;13.60;44.60;;;;;;5028823;28;20958;-67
2022/03/18 11:39:02;;;;;;;8.70;5.23;;;13.80;44.00;;;;;;5028854;28;20494;-67
2022/03/18 11:41:47;;;;;;;6.50;5.57;;;14.20;41.80;;;;;;5029151;28;20554;-69
2022/03/18 11:44:39;;;;;;;8.77;6.63;;;14.40;42.90;;;;;;5028938;28;20465;-71
2022/03/18 11:47:43;;;;;;;7.80;5.53;;;14.60;43.10;;;;;;5028873;28;20967;-69
2022/03/18 11:50:37;;;;;;;10.67;6.97;;;14.10;42.30;;;;;;5010831;28;20451;-70
2022/03/18 11:53:05;;;;;;;9.77;6.50;;;13.70;41.20;;;;;;5018413;28;20506;-70
2022/03/18 11:55:32;;;;;;;10.50;6.63;;;13.40;42.20;;;;;;5028760;28;20457;-70
2022/03/18 11:57:59;;;;;;;9.70;6.60;;;13.00;42.40;;;;;;5028770;28;21032;-70
2022/03/18 12:00:42;;;;;;;14.07;6.30;;;12.90;43.30;;;;;;5028831;28;20966;-68
2022/03/18 12:03:19;;;;;;;10.27;6.87;;;12.90;43.60;;;;;;5029411;28;20541;-71
2022/03/18 12:05:58;;;;;;;8.47;5.77;;;12.80;44.70;;;;;;5031153;28;20569;-68
2022/03/18 12:09:00;;;;;;;7.63;5.70;;;12.90;43.10;;;;;;5037943;28;21042;-70
2022/03/18 12:11:30;;;;;;;9.20;5.77;;;13.20;41.60;;;;;;5014760;28;20438;-69
2022/03/18 12:13:58;;;;;;;8.40;5.37;;;13.20;41.50;;;;;;5032449;28;20458;-69
2022/03/18 12:16:25;;;;;;;10.43;7.00;;;13.10;42.40;;;;;;5032461;28;20454;-68
2022/03/18 12:18:58;;;;;;;7.73;5.43;;;13.40;42.00;;;;;;5032294;28;20463;-72
2022/03/18 12:21:45;;;;;;;10.07;6.33;;;13.60;42.30;;;;;;5031935;28;20487;-70
2022/03/18 12:24:13;;;;;;;9.07;5.87;;;13.90;40.70;;;;;;5031069;28;20526;-72
2022/03/18 12:26:41;;;;;;;10.03;6.50;;;14.10;41.30;;;;;;5032078;28;20536;-70
2022/03/18 12:29:09;;;;;;;10.83;6.37;;;14.20;39.90;;;;;;5032024;28;20536;-71
2022/03/18 12:31:37;;;;;;;10.70;6.40;;;14.20;40.10;;;;;;5032150;28;20462;-71
2022/03/18 12:34:08;;;;;;;7.80;5.77;;;14.10;40.90;;;;;;5032033;28;20454;-69
2022/03/18 12:36:37;;;;;;;12.63;6.30;;;14.30;40.00;;;;;;5031961;28;20591;-72
2022/03/18 12:39:11;;;;;;;7.97;6.07;;;14.50;39.90;;;;;;5031611;28;20502;-69
2022/03/18 12:41:38;;;;;;;9.30;6.40;;;14.60;38.60;;;;;;5031709;28;20539;-67
2022/03/18 12:44:06;;;;;;;8.87;6.10;;;14.80;38.30;;;;;;5031423;28;20455;-71
2022/03/18 12:46:35;;;;;;;8.00;6.10;;;14.90;41.00;;;;;;5031781;28;20502;-70
2022/03/18 12:49:04;;;;;;;8.03;6.20;;;15.30;39.60;;;;;;5031690;28;20811;-69
2022/03/18 12:51:31;;;;;;;9.00;6.10;;;15.40;37.90;;;;;;5031445;28;20453;-71
2022/03/18 12:53:59;;;;;;;7.47;5.70;;;15.50;37.70;;;;;;5031704;28;20458;-69
2022/03/18 12:56:31;;;;;;;10.90;6.27;;;15.40;38.40;;;;;;5031600;28;20827;-70
2022/03/18 12:58:58;;;;;;;10.47;6.47;;;15.50;37.40;;;;;;5031438;28;20987;-71
2022/03/18 13:01:27;;;;;;;8.30;5.63;;;15.50;38.00;;;;;;5031639;28;20525;-71
2022/03/18 13:03:55;;;;;;;8.00;6.20;;;15.90;37.50;;;;;;5031361;28;20929;-71
2022/03/18 13:06:27;;;;;;;9.53;5.43;;;16.00;36.30;;;;;;5031317;28;20544;-68
2022/03/18 13:09:06;;;;;;;8.10;5.83;;;16.00;39.00;;;;;;5031404;28;20506;-68
2022/03/18 13:11:35;;;;;;;7.80;5.73;;;16.30;36.60;;;;;;5031305;28;20457;-68